Corcoran, Minnesota
Current Conditions -  °F | °C
As of 12:53 AM on Sunday 23 Nov 2014 (Local Time) from KMIC Reporting Station
Haze Haze  
Wind Chill: 36°   Ceiling: 1800
Heat Index: 42°   Visibility: 4mi
Dew Point: 40°   Wind: 10mph
Humidity: 92%   Direction: 160°SSE
Pressure: 29.45"   Gusts: NA
Location:  45.0992°N, 93.4917°W
Report Text: KMIC 230653Z AUTO 16009KT 4SM BR BKN018 OVC022 06/04 A2945 RMK AO2 SLP980 T00560044
Loading
Personal Weather Stations






























Interactive Weather Map New forecast layout! Learn more

10-Day Weather Forecast

Advertisements
Track Severe Weather on mobile